createdAt,value
2023-03-19T11:48:22.430Z,8.00
2023-03-19T11:51:50.010Z,7.03
2023-03-19T11:55:19.901Z,7.80
2023-03-19T11:58:52.045Z,6.58
2023-03-19T12:02:30.616Z,6.47
2023-03-19T12:06:19.106Z,5.65
2023-03-19T12:09:38.483Z,5.78
2023-03-19T12:13:08.751Z,5.50
2023-03-19T12:16:45.906Z,6.12
2023-03-19T12:20:19.896Z,5.60
2023-03-19T12:23:35.356Z,8.15
2023-03-19T12:27:06.562Z,6.80
2023-03-19T12:30:29.709Z,5.33
2023-03-19T12:34:05.645Z,5.72
2023-03-19T12:37:34.260Z,6.00
2023-03-19T12:40:49.118Z,4.92
2023-03-19T12:44:08.598Z,5.35
2023-03-19T12:47:26.858Z,5.53
2023-03-19T12:50:33.959Z,4.80
2023-03-19T12:53:59.336Z,5.72
2023-03-19T12:57:17.940Z,5.65
2023-03-19T13:00:51.557Z,5.53
2023-03-19T13:04:26.192Z,5.37
2023-03-19T13:07:44.344Z,5.62
2023-03-19T13:10:50.251Z,5.65
2023-03-19T13:14:12.343Z,5.70
2023-03-19T13:17:24.669Z,5.22
2023-03-19T13:20:55.944Z,5.53
2023-03-19T13:24:04.554Z,6.20
2023-03-19T13:27:12.442Z,5.58
2023-03-19T13:30:31.568Z,4.85
2023-03-19T13:33:42.229Z,4.95
2023-03-19T13:36:54.490Z,5.62
2023-03-19T13:40:02.330Z,5.10
2023-03-19T13:43:27.418Z,4.85
2023-03-19T13:49:45.379Z,6.17
2023-03-19T13:53:08.917Z,6.65
2023-03-19T13:59:43.427Z,5.75
2023-03-19T14:02:58.941Z,6.25
2023-03-19T14:06:11.672Z,8.78
2023-03-19T14:09:21.514Z,7.42
2023-03-19T14:12:36.729Z,5.60
2023-03-19T14:15:43.205Z,6.42
2023-03-19T14:18:51.143Z,5.28
2023-03-19T14:22:02.617Z,5.55
2023-03-19T14:25:23.354Z,7.40
2023-03-19T14:28:32.247Z,9.83
2023-03-19T14:31:56.643Z,6.90
2023-03-19T14:35:06.752Z,6.83
2023-03-19T14:38:12.722Z,5.40
2023-03-19T14:41:18.523Z,5.40
2023-03-19T14:44:45.851Z,6.45
2023-03-19T14:48:15.748Z,6.62
2023-03-19T14:52:06.931Z,7.65
2023-03-19T14:55:19.693Z,5.78
2023-03-19T14:58:26.909Z,6.08
2023-03-19T15:01:34.350Z,6.03
2023-03-19T15:04:41.437Z,6.10
2023-03-19T15:07:51.264Z,5.17
2023-03-19T15:11:05.118Z,5.50
2023-03-19T15:14:22.433Z,5.60
2023-03-19T15:17:51.603Z,7.15
2023-03-19T15:21:04.402Z,6.05
2023-03-19T15:24:11.829Z,4.70
2023-03-19T15:27:19.954Z,4.55
2023-03-19T15:30:53.871Z,5.25
2023-03-19T15:37:01.500Z,5.30
2023-03-19T15:40:10.354Z,4.87
2023-03-19T15:43:16.923Z,6.25
2023-03-19T15:46:26.731Z,5.30
2023-03-19T15:49:52.641Z,6.05
2023-03-19T15:53:02.470Z,7.10
2023-03-19T15:56:10.096Z,9.85
2023-03-19T15:59:15.691Z,8.23
2023-03-19T16:02:29.747Z,8.20
2023-03-19T16:08:50.552Z,6.35
2023-03-19T16:11:58.012Z,6.80
2023-03-19T16:15:04.311Z,11.65
2023-03-19T16:18:10.412Z,10.28
2023-03-19T16:21:29.964Z,7.08
2023-03-19T16:24:47.073Z,6.85
2023-03-19T16:27:55.295Z,6.30
2023-03-19T16:31:04.620Z,6.08
2023-03-19T16:34:11.146Z,5.33
2023-03-19T16:37:17.184Z,6.45
2023-03-19T16:40:38.140Z,15.03
2023-03-19T16:43:45.863Z,9.35
2023-03-19T16:46:51.929Z,8.28
2023-03-19T16:50:00.709Z,8.70
2023-03-19T16:53:08.207Z,7.53
2023-03-19T16:56:15.897Z,11.65
2023-03-19T16:59:23.523Z,15.32
2023-03-19T17:02:31.901Z,14.00
2023-03-19T17:05:38.322Z,14.13
2023-03-19T17:08:46.719Z,11.10
2023-03-19T17:11:54.793Z,16.77
2023-03-19T17:15:02.730Z,13.83
2023-03-19T17:18:09.256Z,10.18
2023-03-19T17:21:24.804Z,9.55
2023-03-19T17:24:38.751Z,38.35
2023-03-19T17:27:46.393Z,19.10
2023-03-19T17:30:53.623Z,11.68
2023-03-19T17:33:59.010Z,10.53
2023-03-19T17:37:11.131Z,9.18
2023-03-19T17:40:17.378Z,10.65
2023-03-19T17:43:26.410Z,11.70
2023-03-19T17:46:37.414Z,12.23
2023-03-19T17:49:48.076Z,11.20
2023-03-19T17:52:55.183Z,11.63
2023-03-19T17:56:03.146Z,10.28
2023-03-19T17:59:10.481Z,11.33
2023-03-19T18:02:17.267Z,10.75
2023-03-19T18:05:38.122Z,10.75
2023-03-19T18:08:45.132Z,10.88
2023-03-19T18:11:51.379Z,11.88
2023-03-19T18:14:58.860Z,14.43
2023-03-19T18:18:11.550Z,17.73
2023-03-19T18:24:25.407Z,32.75
2023-03-19T18:27:33.366Z,24.25
2023-03-19T18:30:38.958Z,30.15
2023-03-19T18:33:46.533Z,33.13
2023-03-19T18:36:52.629Z,29.75
2023-03-19T18:40:00.714Z,28.07
2023-03-19T18:43:08.294Z,22.02
2023-03-19T18:46:15.833Z,21.90
2023-03-19T18:49:35.346Z,19.55
2023-03-19T18:52:41.093Z,19.70
2023-03-19T18:55:48.285Z,18.55
2023-03-19T18:58:53.933Z,24.52
2023-03-19T19:02:00.329Z,52.05
2023-03-19T19:05:08.851Z,60.67
2023-03-19T19:08:18.088Z,53.78
2023-03-19T19:11:27.393Z,83.70
2023-03-19T19:14:37.517Z,83.82
2023-03-19T19:17:44.811Z,74.40
2023-03-19T19:20:51.525Z,52.98
2023-03-19T19:23:57.606Z,52.90
2023-03-19T19:27:08.422Z,49.38
2023-03-19T19:30:18.616Z,37.03
2023-03-19T19:33:36.155Z,35.85
2023-03-19T19:36:42.842Z,28.07
2023-03-19T19:39:48.318Z,23.47
2023-03-19T19:42:55.152Z,24.72
2023-03-19T19:46:04.311Z,23.65
2023-03-19T19:49:13.551Z,21.12
2023-03-19T19:52:20.704Z,19.17
2023-03-19T19:55:27.203Z,17.90
2023-03-19T19:58:40.219Z,17.75
2023-03-19T20:01:47.293Z,16.02
2023-03-19T20:04:54.987Z,16.42
2023-03-19T20:08:00.161Z,18.77
2023-03-19T20:11:06.283Z,23.20
2023-03-19T20:14:13.909Z,21.87
2023-03-19T20:17:20.711Z,20.97
2023-03-19T20:20:41.184Z,19.87
2023-03-19T20:23:48.210Z,17.05
2023-03-19T20:26:55.211Z,18.50
2023-03-19T20:30:02.269Z,18.65
2023-03-19T20:33:08.955Z,18.80
2023-03-19T20:36:17.698Z,16.55
2023-03-19T20:39:26.252Z,15.50
2023-03-19T20:42:32.509Z,15.83
2023-03-19T20:45:44.910Z,20.68
2023-03-19T20:48:51.269Z,20.37
2023-03-19T20:51:56.639Z,26.95
2023-03-19T20:55:04.115Z,17.20
2023-03-19T20:58:10.237Z,13.83
2023-03-19T21:01:17.319Z,13.08
2023-03-19T21:04:28.862Z,14.20
2023-03-19T21:07:46.884Z,19.70
2023-03-19T21:10:57.524Z,26.33
2023-03-19T21:14:06.095Z,24.30
2023-03-19T21:17:12.506Z,21.40
2023-03-19T21:20:21.140Z,19.62
2023-03-19T21:23:49.332Z,13.48
2023-03-19T21:26:55.523Z,15.10
2023-03-19T21:30:02.291Z,12.15
2023-03-19T21:33:12.336Z,10.90
2023-03-19T21:36:20.754Z,9.93
2023-03-19T21:39:22.040Z,10.70
2023-03-19T21:42:17.509Z,10.68
2023-03-19T21:45:39.937Z,10.88
2023-03-19T21:48:47.711Z,10.53
2023-03-19T21:51:55.088Z,10.72
2023-03-19T21:55:00.740Z,10.93
2023-03-19T21:58:10.987Z,10.23
2023-03-19T22:01:18.382Z,10.45
2023-03-19T22:04:26.745Z,10.48
2023-03-19T22:07:32.980Z,10.45
2023-03-19T22:10:42.856Z,11.30
2023-03-19T22:13:51.147Z,13.05
2023-03-19T22:16:58.619Z,12.23
2023-03-19T22:20:05.725Z,11.33
2023-03-19T22:23:13.824Z,11.25
2023-03-19T22:26:23.386Z,13.18
2023-03-19T22:29:34.852Z,13.35
2023-03-19T22:32:41.756Z,11.15
2023-03-19T22:35:49.296Z,11.18
2023-03-19T22:38:57.100Z,11.55
2023-03-19T22:42:03.702Z,11.40
2023-03-19T22:45:08.461Z,11.25
2023-03-19T22:48:15.101Z,12.78
2023-03-19T22:51:22.024Z,12.68
2023-03-19T22:54:28.374Z,12.20
2023-03-19T22:57:34.465Z,12.90
2023-03-19T23:00:39.849Z,13.48
2023-03-19T23:03:49.099Z,12.03
2023-03-19T23:06:57.293Z,11.40
2023-03-19T23:10:03.198Z,12.50
2023-03-19T23:13:10.488Z,10.78
2023-03-19T23:16:16.605Z,12.33
2023-03-19T23:19:41.248Z,11.73
2023-03-19T23:22:49.376Z,12.03
2023-03-19T23:25:55.407Z,10.28
2023-03-19T23:29:02.115Z,10.23
2023-03-19T23:32:07.839Z,10.43
2023-03-19T23:35:14.670Z,9.23
2023-03-19T23:38:20.509Z,9.88
2023-03-19T23:41:37.742Z,10.35
2023-03-19T23:44:44.173Z,10.15
2023-03-19T23:47:52.055Z,10.35
2023-03-19T23:50:59.618Z,11.10
2023-03-19T23:54:06.032Z,11.40
2023-03-19T23:57:14.786Z,10.88
